createdAt,value
2022-12-24T00:00:49.052Z,16.85
2022-12-24T00:03:08.937Z,15.52
2022-12-24T00:05:29.996Z,17.17
2022-12-24T00:07:50.152Z,15.10
2022-12-24T00:10:10.844Z,12.60
2022-12-24T00:12:30.603Z,11.40
2022-12-24T00:14:50.286Z,11.23
2022-12-24T00:17:10.520Z,11.40
2022-12-24T00:19:30.563Z,10.52
2022-12-24T00:21:50.221Z,12.25
2022-12-24T00:24:10.448Z,10.10
2022-12-24T00:26:31.140Z,10.93
2022-12-24T00:28:51.208Z,9.85
2022-12-24T00:31:14.236Z,11.73
2022-12-24T00:33:34.239Z,12.07
2022-12-24T00:35:53.900Z,12.65
2022-12-24T00:38:13.937Z,13.15
2022-12-24T00:40:33.987Z,12.43
2022-12-24T00:42:53.572Z,11.85
2022-12-24T00:45:13.660Z,11.30
2022-12-24T00:47:33.144Z,11.60
2022-12-24T00:49:52.845Z,12.07
2022-12-24T00:52:12.752Z,12.77
2022-12-24T00:54:32.347Z,12.40
2022-12-24T00:56:52.573Z,10.02
2022-12-24T00:59:12.386Z,10.40
2022-12-24T01:01:32.682Z,10.93
2022-12-24T01:04:13.992Z,10.27
2022-12-24T01:06:34.047Z,9.38
2022-12-24T01:08:53.528Z,11.43
2022-12-24T01:11:13.501Z,13.32
2022-12-24T01:13:34.711Z,11.48
2022-12-24T01:15:54.586Z,10.20
2022-12-24T01:18:14.888Z,10.70
2022-12-24T01:20:34.989Z,11.95
2022-12-24T01:22:55.034Z,13.48
2022-12-24T01:25:15.121Z,14.05
2022-12-24T01:27:35.043Z,18.55
2022-12-24T01:29:55.206Z,15.63
2022-12-24T01:32:15.142Z,11.90
2022-12-24T01:34:35.793Z,10.88
2022-12-24T01:36:56.206Z,11.95
2022-12-24T01:39:16.435Z,12.38
2022-12-24T01:41:55.636Z,13.15
2022-12-24T01:44:36.176Z,13.60
2022-12-24T01:47:02.958Z,15.15
2022-12-24T01:49:23.298Z,16.27
2022-12-24T01:51:47.563Z,17.30
2022-12-24T01:54:28.120Z,17.25
2022-12-24T01:57:02.091Z,16.42
2022-12-24T01:59:22.189Z,17.13
2022-12-24T02:01:42.162Z,16.42
2022-12-24T02:04:11.523Z,15.50
2022-12-24T02:06:31.586Z,16.88
2022-12-24T02:08:51.518Z,14.70
2022-12-24T02:11:18.124Z,14.80
2022-12-24T02:13:38.631Z,13.05
2022-12-24T02:16:20.204Z,16.00
2022-12-24T02:18:43.145Z,14.52
2022-12-24T02:21:24.370Z,13.75
2022-12-24T02:24:21.103Z,15.38
2022-12-24T02:27:02.412Z,14.20
2022-12-24T02:30:00.347Z,16.73
2022-12-24T02:32:26.259Z,17.20
2022-12-24T02:35:05.361Z,15.90
2022-12-24T02:37:32.528Z,13.13
2022-12-24T02:40:00.301Z,13.80
2022-12-24T02:42:28.661Z,13.23
2022-12-24T02:45:07.002Z,13.65
2022-12-24T02:47:29.166Z,14.35
2022-12-24T02:49:49.990Z,13.43
2022-12-24T02:52:34.507Z,12.80
2022-12-24T02:54:55.035Z,11.07
2022-12-24T02:57:32.709Z,10.52
2022-12-24T03:00:08.875Z,11.32
2022-12-24T03:02:37.600Z,11.02
2022-12-24T03:05:17.514Z,10.80
2022-12-24T03:08:12.545Z,10.77
2022-12-24T03:10:46.250Z,9.35
2022-12-24T03:13:16.434Z,11.48
2022-12-24T03:15:37.838Z,9.07
2022-12-24T03:18:01.879Z,8.60
2022-12-24T03:20:27.819Z,9.10
2022-12-24T03:22:47.663Z,10.05
2022-12-24T03:25:07.627Z,8.88
2022-12-24T03:27:29.957Z,11.63
2022-12-24T03:29:49.528Z,15.43
2022-12-24T03:32:09.625Z,15.13
2022-12-24T03:34:30.029Z,14.93
2022-12-24T03:36:50.123Z,18.15
2022-12-24T03:39:56.700Z,15.13
2022-12-24T03:42:16.885Z,17.95
2022-12-24T03:44:36.839Z,16.38
2022-12-24T03:46:57.057Z,16.60
2022-12-24T03:49:17.275Z,15.80
2022-12-24T03:51:37.540Z,15.82
2022-12-24T03:53:57.351Z,16.48
2022-12-24T03:56:17.350Z,15.18
2022-12-24T03:58:37.039Z,16.13
2022-12-24T04:00:57.389Z,15.13
2022-12-24T04:03:16.986Z,15.70
2022-12-24T04:05:37.283Z,16.42
2022-12-24T04:07:56.888Z,16.40
2022-12-24T04:10:16.768Z,16.33
2022-12-24T04:12:37.463Z,16.98
2022-12-24T04:14:57.451Z,17.52
2022-12-24T04:17:17.188Z,15.85
2022-12-24T04:19:37.308Z,17.90
2022-12-24T04:21:57.560Z,16.45
2022-12-24T04:24:17.600Z,15.52
2022-12-24T04:26:37.453Z,15.40
2022-12-24T04:28:57.639Z,16.60
2022-12-24T04:31:18.016Z,16.45
2022-12-24T04:33:37.867Z,16.85
2022-12-24T04:35:59.013Z,17.25
2022-12-24T04:38:19.309Z,18.40
2022-12-24T04:40:39.409Z,17.85
2022-12-24T04:42:59.446Z,17.90
2022-12-24T04:45:19.641Z,19.08
2022-12-24T04:47:39.815Z,18.95
2022-12-24T04:50:01.030Z,18.20
2022-12-24T04:52:21.227Z,19.10
2022-12-24T04:54:41.067Z,19.95
2022-12-24T04:57:00.911Z,19.75
2022-12-24T04:59:21.132Z,19.58
2022-12-24T05:01:41.417Z,17.65
2022-12-24T05:04:01.352Z,19.48
2022-12-24T05:06:23.751Z,17.15
2022-12-24T05:08:44.021Z,19.77
2022-12-24T05:11:04.664Z,18.05
2022-12-24T05:13:31.852Z,16.45
2022-12-24T05:15:56.744Z,17.23
2022-12-24T05:18:16.846Z,16.30
2022-12-24T05:20:37.035Z,15.68
2022-12-24T05:23:15.420Z,16.15
2022-12-24T05:25:57.183Z,17.80
2022-12-24T05:28:17.486Z,17.52
2022-12-24T05:30:37.283Z,16.80
2022-12-24T05:32:57.316Z,14.48
2022-12-24T05:35:18.696Z,17.92
2022-12-24T05:37:38.771Z,16.85
2022-12-24T05:39:58.733Z,16.65
2022-12-24T05:42:18.409Z,20.13
2022-12-24T05:44:38.345Z,14.07
2022-12-24T05:46:58.079Z,11.07
2022-12-24T05:49:17.901Z,9.82
2022-12-24T05:51:39.662Z,9.43
2022-12-24T05:53:59.814Z,10.20
2022-12-24T05:56:23.122Z,7.55
2022-12-24T05:58:43.657Z,7.90
2022-12-24T06:01:06.048Z,8.43
2022-12-24T06:03:25.832Z,9.38
2022-12-24T06:05:45.486Z,8.07
2022-12-24T06:08:05.004Z,8.30
2022-12-24T06:10:24.863Z,9.13
2022-12-24T06:12:44.674Z,9.88
2022-12-24T06:15:05.308Z,10.45
2022-12-24T06:17:25.755Z,9.48
2022-12-24T06:19:45.639Z,11.07
2022-12-24T06:22:05.776Z,10.27
2022-12-24T06:24:25.488Z,10.25
2022-12-24T06:26:45.664Z,9.35
2022-12-24T06:29:06.246Z,9.93
2022-12-24T06:31:26.341Z,9.48
2022-12-24T06:33:46.875Z,9.75
2022-12-24T06:36:17.566Z,8.13
2022-12-24T06:38:38.117Z,7.85
2022-12-24T06:40:58.207Z,8.27
2022-12-24T06:43:18.266Z,8.68
2022-12-24T06:45:38.411Z,10.27
2022-12-24T06:47:59.021Z,10.52
2022-12-24T06:50:18.758Z,10.80
2022-12-24T06:52:38.775Z,10.95
2022-12-24T06:54:58.348Z,10.80
2022-12-24T06:57:18.557Z,12.63
2022-12-24T06:59:38.786Z,13.60
2022-12-24T07:01:58.915Z,12.05
2022-12-24T07:04:20.631Z,12.10
2022-12-24T07:06:41.498Z,11.63
2022-12-24T07:09:01.426Z,13.10
2022-12-24T07:11:22.480Z,13.10
2022-12-24T07:13:42.196Z,13.65
2022-12-24T07:16:03.243Z,13.57
2022-12-24T07:18:23.100Z,13.60
2022-12-24T07:20:43.679Z,13.80
2022-12-24T07:23:03.776Z,12.38
2022-12-24T07:25:23.774Z,10.23
2022-12-24T07:27:43.322Z,9.93
2022-12-24T07:30:03.901Z,10.23
2022-12-24T07:32:23.581Z,9.73
2022-12-24T07:34:43.483Z,13.68
2022-12-24T07:37:03.168Z,13.85
2022-12-24T07:39:22.958Z,14.40
2022-12-24T07:41:43.132Z,14.25
2022-12-24T07:44:03.096Z,16.08
2022-12-24T07:46:22.813Z,13.73
2022-12-24T07:48:42.879Z,16.05
2022-12-24T07:51:02.753Z,15.50
2022-12-24T07:53:23.272Z,14.82
2022-12-24T07:55:43.848Z,13.07
2022-12-24T07:58:03.563Z,11.45
2022-12-24T08:00:23.052Z,10.88
2022-12-24T08:02:42.691Z,9.95
2022-12-24T08:05:02.718Z,11.35
2022-12-24T08:07:22.780Z,12.30
2022-12-24T08:09:43.719Z,12.48
2022-12-24T08:12:04.150Z,11.93
2022-12-24T08:14:24.161Z,10.98
2022-12-24T08:16:44.267Z,10.90
2022-12-24T08:19:04.292Z,13.00
2022-12-24T08:21:23.922Z,10.77
2022-12-24T08:23:43.547Z,12.50
2022-12-24T08:26:07.216Z,9.88
2022-12-24T08:28:26.896Z,10.23
2022-12-24T08:30:49.436Z,9.25
2022-12-24T08:33:09.297Z,8.82
2022-12-24T08:35:29.119Z,9.43
2022-12-24T08:37:48.906Z,8.90
2022-12-24T08:40:09.792Z,8.88
2022-12-24T08:42:30.021Z,8.98
2022-12-24T08:44:49.850Z,9.20
2022-12-24T08:47:09.543Z,9.30
2022-12-24T08:49:29.289Z,8.88
2022-12-24T08:51:50.730Z,8.68
2022-12-24T08:54:10.588Z,10.38
2022-12-24T08:56:30.428Z,10.45
2022-12-24T08:58:50.545Z,7.90
2022-12-24T09:01:16.062Z,7.97
2022-12-24T09:03:36.270Z,9.07
2022-12-24T09:05:56.766Z,9.48
2022-12-24T09:08:16.592Z,9.70
2022-12-24T09:10:36.424Z,9.60
2022-12-24T09:12:56.679Z,8.43
2022-12-24T09:15:17.079Z,8.15
2022-12-24T09:17:37.329Z,7.35
2022-12-24T09:19:57.275Z,8.13
2022-12-24T09:22:17.389Z,7.85
2022-12-24T09:24:37.144Z,7.25
2022-12-24T09:26:57.905Z,7.25
2022-12-24T09:29:18.241Z,7.53
2022-12-24T09:31:37.850Z,8.30
2022-12-24T09:33:58.452Z,7.85
2022-12-24T09:36:19.915Z,8.20
2022-12-24T09:38:40.324Z,9.23
2022-12-24T09:41:05.425Z,8.27
2022-12-24T09:43:33.539Z,6.60
2022-12-24T09:46:09.175Z,8.27
2022-12-24T09:48:31.480Z,7.60
2022-12-24T09:51:06.029Z,8.50
2022-12-24T09:53:29.210Z,8.27
2022-12-24T09:55:53.951Z,9.32
2022-12-24T09:58:26.608Z,8.85
2022-12-24T10:00:50.069Z,9.00
2022-12-24T10:03:17.776Z,7.25
2022-12-24T10:05:50.898Z,9.02
2022-12-24T10:08:38.773Z,8.52
2022-12-24T10:11:33.120Z,8.20
2022-12-24T10:13:58.321Z,8.25
2022-12-24T10:16:31.266Z,8.75
2022-12-24T10:21:36.421Z,6.50
2022-12-24T10:24:20.789Z,6.35
2022-12-24T10:26:54.455Z,6.95
2022-12-24T10:29:18.760Z,8.00
2022-12-24T10:31:52.484Z,6.65
2022-12-24T10:34:18.635Z,7.25
2022-12-24T10:36:38.684Z,8.65
2022-12-24T10:38:58.799Z,6.57
2022-12-24T10:41:18.841Z,9.77
2022-12-24T10:43:41.741Z,10.88
2022-12-24T10:46:09.516Z,10.57
2022-12-24T10:48:50.013Z,8.63
2022-12-24T10:51:19.189Z,8.07
2022-12-24T10:53:55.845Z,11.32
2022-12-24T10:56:18.657Z,12.85
2022-12-24T10:58:50.638Z,12.10
2022-12-24T11:01:11.322Z,8.52
2022-12-24T11:03:34.039Z,9.25
2022-12-24T11:06:22.602Z,9.10
2022-12-24T11:08:44.536Z,13.20
2022-12-24T11:11:11.890Z,10.77
2022-12-24T11:13:38.489Z,14.80
2022-12-24T11:16:07.287Z,11.80
2022-12-24T11:18:27.242Z,14.05
2022-12-24T11:20:51.606Z,12.70
2022-12-24T11:23:16.887Z,17.45
2022-12-24T11:25:40.950Z,11.85
2022-12-24T11:28:30.093Z,13.77
2022-12-24T11:30:57.511Z,18.17
2022-12-24T11:33:18.969Z,14.13
2022-12-24T11:35:44.729Z,11.00
2022-12-24T11:38:04.616Z,19.08
2022-12-24T11:40:25.979Z,13.93
2022-12-24T11:42:46.791Z,13.57
2022-12-24T11:45:21.884Z,11.90
2022-12-24T11:47:41.495Z,11.15
2022-12-24T11:50:36.556Z,12.05
2022-12-24T11:53:11.340Z,11.30
2022-12-24T11:55:55.851Z,12.50
2022-12-24T11:58:36.984Z,11.40
2022-12-24T12:01:19.643Z,9.70
2022-12-24T12:03:48.161Z,11.55
2022-12-24T12:06:23.111Z,11.88
2022-12-24T12:08:44.163Z,11.95
2022-12-24T12:11:12.234Z,11.45
2022-12-24T12:13:33.452Z,11.18
2022-12-24T12:16:29.146Z,14.07
2022-12-24T12:19:07.486Z,13.75
2022-12-24T12:21:46.045Z,10.13
2022-12-24T12:24:16.168Z,17.20
2022-12-24T12:26:36.420Z,16.52
2022-12-24T12:29:10.349Z,15.23
2022-12-24T12:31:34.929Z,14.38
2022-12-24T12:34:13.610Z,13.55
2022-12-24T12:36:41.520Z,17.67
2022-12-24T12:39:01.417Z,13.18
2022-12-24T12:42:11.443Z,10.93
2022-12-24T12:45:05.623Z,10.32
2022-12-24T12:47:34.623Z,12.27
2022-12-24T12:50:07.668Z,10.98
2022-12-24T12:52:45.944Z,12.18
2022-12-24T12:55:24.768Z,17.17
2022-12-24T12:57:46.794Z,18.92
2022-12-24T13:00:10.207Z,14.27
2022-12-24T13:02:58.390Z,15.20
2022-12-24T13:05:24.712Z,15.85
2022-12-24T13:07:51.105Z,16.95
2022-12-24T13:10:59.567Z,15.60
2022-12-24T13:13:25.277Z,13.55
2022-12-24T13:15:46.190Z,15.75
2022-12-24T13:18:31.298Z,13.23
2022-12-24T13:20:52.610Z,14.55
2022-12-24T13:23:17.343Z,15.07
2022-12-24T13:25:49.779Z,19.77
2022-12-24T13:28:22.102Z,16.17
2022-12-24T13:30:42.824Z,17.13
2022-12-24T13:33:03.595Z,30.35
2022-12-24T13:35:23.729Z,22.33
2022-12-24T13:37:43.751Z,16.67
2022-12-24T13:40:16.134Z,15.50
2022-12-24T13:43:12.503Z,20.52
2022-12-24T13:45:38.728Z,11.32
2022-12-24T13:48:10.420Z,10.13
2022-12-24T13:51:11.830Z,11.35
2022-12-24T13:53:32.900Z,13.40
2022-12-24T13:56:17.751Z,13.23
2022-12-24T13:58:40.826Z,13.32
2022-12-24T14:01:04.298Z,22.77
2022-12-24T14:03:36.075Z,20.77
2022-12-24T14:06:11.848Z,11.35
2022-12-24T14:08:47.841Z,14.38
2022-12-24T14:11:17.228Z,16.40
2022-12-24T14:13:40.404Z,17.70
2022-12-24T14:16:34.717Z,17.17
2022-12-24T14:19:12.697Z,12.15
2022-12-24T14:21:42.942Z,10.18
2022-12-24T14:24:11.687Z,12.52
2022-12-24T14:26:35.709Z,15.48
2022-12-24T14:29:00.114Z,13.77
2022-12-24T14:31:20.316Z,12.68
2022-12-24T14:33:40.229Z,11.07
2022-12-24T14:36:01.341Z,13.30
2022-12-24T14:38:22.344Z,13.15
2022-12-24T14:40:56.605Z,13.05
2022-12-24T14:43:35.118Z,11.70
2022-12-24T14:46:25.360Z,22.80
2022-12-24T14:49:05.898Z,17.83
2022-12-24T14:51:37.927Z,16.38
2022-12-24T14:54:09.535Z,15.50
2022-12-24T14:56:29.255Z,14.00
2022-12-24T14:58:49.177Z,13.35
2022-12-24T15:01:28.526Z,14.07
2022-12-24T15:04:10.484Z,14.27
2022-12-24T15:06:34.386Z,10.32
2022-12-24T15:08:54.692Z,13.18
2022-12-24T15:11:49.503Z,13.80
2022-12-24T15:14:11.842Z,13.27
2022-12-24T15:16:36.406Z,14.75
2022-12-24T15:19:00.410Z,16.42
2022-12-24T15:21:30.052Z,19.80
2022-12-24T15:23:51.438Z,23.98
2022-12-24T15:26:22.518Z,21.95
2022-12-24T15:28:42.663Z,22.38
2022-12-24T15:31:19.475Z,25.08
2022-12-24T15:33:39.299Z,21.52
2022-12-24T15:35:59.659Z,24.98
2022-12-24T15:38:28.704Z,29.67
2022-12-24T15:40:48.956Z,20.63
2022-12-24T15:43:09.053Z,27.60
2022-12-24T15:45:33.939Z,30.85
2022-12-24T15:48:06.478Z,28.63
2022-12-24T15:50:32.578Z,27.95
2022-12-24T15:53:21.332Z,22.35
2022-12-24T15:55:46.019Z,21.50
2022-12-24T15:58:25.855Z,18.55
2022-12-24T16:01:20.276Z,20.52
2022-12-24T16:03:53.824Z,21.27
2022-12-24T16:06:13.923Z,21.35
2022-12-24T16:08:35.842Z,19.88
2022-12-24T16:11:05.035Z,19.00
2022-12-24T16:13:29.789Z,19.42
2022-12-24T16:16:05.043Z,21.67
2022-12-24T16:18:27.583Z,22.65
2022-12-24T16:20:49.736Z,23.80
2022-12-24T16:23:20.746Z,30.93
2022-12-24T16:25:40.948Z,43.10
2022-12-24T16:28:03.581Z,38.63
2022-12-24T16:30:24.677Z,39.72
2022-12-24T16:32:46.272Z,43.40
2022-12-24T16:35:28.575Z,48.05
2022-12-24T16:37:48.673Z,43.25
2022-12-24T16:40:18.306Z,50.17
2022-12-24T16:42:59.429Z,46.42
2022-12-24T16:45:19.322Z,52.92
2022-12-24T16:47:43.304Z,45.90
2022-12-24T16:50:07.790Z,47.15
2022-12-24T16:52:29.550Z,43.78
2022-12-24T16:54:50.115Z,44.22
2022-12-24T16:57:10.559Z,38.22
2022-12-24T16:59:32.015Z,32.88
2022-12-24T17:01:52.001Z,31.92
2022-12-24T17:04:13.304Z,28.35
2022-12-24T17:06:33.481Z,26.95
2022-12-24T17:08:53.945Z,26.10
2022-12-24T17:11:14.247Z,27.05
2022-12-24T17:13:34.221Z,25.67
2022-12-24T17:15:54.445Z,24.40
2022-12-24T17:18:14.834Z,39.55
2022-12-24T17:20:35.152Z,35.75
2022-12-24T17:22:55.397Z,33.47
2022-12-24T17:25:16.212Z,39.47
2022-12-24T17:27:36.087Z,35.83
2022-12-24T17:29:56.235Z,32.47
2022-12-24T17:32:16.442Z,35.50
2022-12-24T17:34:36.799Z,31.58
2022-12-24T17:36:56.721Z,32.83
2022-12-24T17:39:20.823Z,32.75
2022-12-24T17:41:45.482Z,26.83
2022-12-24T17:44:08.233Z,30.52
2022-12-24T17:46:29.235Z,34.58
2022-12-24T17:48:50.747Z,39.95
2022-12-24T17:51:12.570Z,40.55
2022-12-24T17:53:33.937Z,41.33
2022-12-24T17:55:53.667Z,41.83
2022-12-24T17:58:14.474Z,45.90
2022-12-24T18:00:35.941Z,43.35
2022-12-24T18:02:55.960Z,44.42
2022-12-24T18:05:17.849Z,51.47
2022-12-24T18:07:37.711Z,54.88
2022-12-24T18:09:57.122Z,54.28
2022-12-24T18:12:17.305Z,53.15
2022-12-24T18:14:37.166Z,48.13
2022-12-24T18:16:56.751Z,50.95
2022-12-24T18:19:17.120Z,47.20
2022-12-24T18:21:37.153Z,49.17
2022-12-24T18:23:58.042Z,53.85
2022-12-24T18:26:19.703Z,54.08
2022-12-24T18:28:40.511Z,56.17
2022-12-24T18:31:02.867Z,61.35
2022-12-24T18:33:22.766Z,54.03
2022-12-24T18:35:42.968Z,50.20
2022-12-24T18:38:03.263Z,44.13
2022-12-24T18:40:23.201Z,48.30
2022-12-24T18:42:43.630Z,41.03
2022-12-24T18:45:03.965Z,37.67
2022-12-24T18:47:24.102Z,42.47
2022-12-24T18:49:43.619Z,37.20
2022-12-24T18:52:08.626Z,33.88
2022-12-24T18:54:28.377Z,37.03
2022-12-24T18:56:54.558Z,42.65
2022-12-24T18:59:14.577Z,35.30
2022-12-24T19:01:34.899Z,32.05
2022-12-24T19:03:55.444Z,31.73
2022-12-24T19:06:16.578Z,30.75
2022-12-24T19:11:17.489Z,32.67
2022-12-24T19:13:37.289Z,33.63
2022-12-24T19:15:57.807Z,35.78
2022-12-24T19:18:17.873Z,38.15
2022-12-24T19:20:39.380Z,36.42
2022-12-24T19:22:58.963Z,33.35
2022-12-24T19:25:18.648Z,34.70
2022-12-24T19:27:38.269Z,35.58
2022-12-24T19:29:58.517Z,35.17
2022-12-24T19:32:18.563Z,58.35
2022-12-24T19:34:38.342Z,66.28
2022-12-24T19:36:58.421Z,57.88
2022-12-24T19:39:18.447Z,45.72
2022-12-24T19:41:38.634Z,45.35
2022-12-24T19:44:00.820Z,42.63
2022-12-24T19:46:26.497Z,40.73
2022-12-24T19:48:52.615Z,24.42
2022-12-24T19:51:12.383Z,36.38
2022-12-24T19:53:33.402Z,47.08
2022-12-24T19:55:53.128Z,49.55
2022-12-24T19:58:12.970Z,45.58
2022-12-24T20:00:32.852Z,40.28
2022-12-24T20:02:53.316Z,36.60
2022-12-24T20:05:13.576Z,35.65
2022-12-24T20:07:33.844Z,41.92
2022-12-24T20:09:54.034Z,40.10
2022-12-24T20:12:13.714Z,49.90
2022-12-24T20:14:33.528Z,52.78
2022-12-24T20:16:54.909Z,49.08
2022-12-24T20:19:15.309Z,63.67
2022-12-24T20:22:00.491Z,57.25
2022-12-24T20:24:20.474Z,57.08
2022-12-24T20:26:40.816Z,65.57
2022-12-24T20:29:08.885Z,48.25
2022-12-24T20:31:29.604Z,54.70
2022-12-24T20:33:49.774Z,62.80
2022-12-24T20:36:10.715Z,54.42
2022-12-24T20:38:30.952Z,53.75
2022-12-24T20:40:56.489Z,55.67
2022-12-24T20:43:21.008Z,51.63
2022-12-24T20:45:51.760Z,53.75
2022-12-24T20:48:11.398Z,50.72
2022-12-24T20:50:32.645Z,45.08
2022-12-24T20:52:53.007Z,40.20
2022-12-24T20:55:13.250Z,42.88
2022-12-24T20:57:36.326Z,39.13
2022-12-24T20:59:56.707Z,36.65
2022-12-24T21:02:16.528Z,41.28
2022-12-24T21:04:36.610Z,38.15
2022-12-24T21:06:57.244Z,48.25
2022-12-24T21:09:17.036Z,50.60
2022-12-24T21:11:49.112Z,48.80
2022-12-24T21:14:10.447Z,52.15
2022-12-24T21:16:32.331Z,58.33
2022-12-24T21:18:52.624Z,60.83
2022-12-24T21:21:12.947Z,54.35
2022-12-24T21:23:33.091Z,47.03
2022-12-24T21:26:00.898Z,46.17
2022-12-24T21:28:20.659Z,46.40
2022-12-24T21:30:42.146Z,36.38
2022-12-24T21:33:01.926Z,32.15
2022-12-24T21:35:21.551Z,42.88
2022-12-24T21:37:41.795Z,37.83
2022-12-24T21:40:01.979Z,38.35
2022-12-24T21:42:22.057Z,56.38
2022-12-24T21:44:41.851Z,53.25
2022-12-24T21:47:03.796Z,43.72
2022-12-24T21:49:42.172Z,50.85
2022-12-24T21:52:02.366Z,40.75
2022-12-24T21:54:22.500Z,38.90
2022-12-24T21:57:01.217Z,39.60
2022-12-24T21:59:26.207Z,64.95
2022-12-24T22:01:47.642Z,46.10
2022-12-24T22:04:07.744Z,38.75
2022-12-24T22:06:45.835Z,45.92
2022-12-24T22:09:23.941Z,34.28
2022-12-24T22:11:53.593Z,38.40
2022-12-24T22:14:17.650Z,53.00
2022-12-24T22:18:57.416Z,38.47
2022-12-24T22:21:17.276Z,44.60
2022-12-24T22:23:42.126Z,34.60
2022-12-24T22:26:13.341Z,32.05
2022-12-24T22:28:33.345Z,32.47
2022-12-24T22:30:54.404Z,30.75
2022-12-24T22:33:14.224Z,26.10
2022-12-24T22:35:37.695Z,26.25
2022-12-24T22:38:00.181Z,27.75
2022-12-24T22:40:20.264Z,24.13
2022-12-24T22:42:43.070Z,26.90
2022-12-24T22:45:03.914Z,26.55
2022-12-24T22:47:24.098Z,27.20
2022-12-24T22:49:44.066Z,27.95
2022-12-24T22:52:04.309Z,26.38
2022-12-24T22:54:24.928Z,27.40
2022-12-24T22:56:44.896Z,28.55
2022-12-24T22:59:05.140Z,25.20
2022-12-24T23:01:37.641Z,29.83
2022-12-24T23:03:57.567Z,33.13
2022-12-24T23:06:17.701Z,24.83
2022-12-24T23:08:37.923Z,25.35
2022-12-24T23:11:12.900Z,23.77
2022-12-24T23:13:52.079Z,24.15
2022-12-24T23:16:12.278Z,29.17
2022-12-24T23:18:33.004Z,30.15
2022-12-24T23:20:52.751Z,29.17
2022-12-24T23:23:13.912Z,30.10
2022-12-24T23:25:34.342Z,26.98
2022-12-24T23:27:54.158Z,22.77
2022-12-24T23:30:14.691Z,23.48
2022-12-24T23:32:34.460Z,23.30
2022-12-24T23:34:54.547Z,25.15
2022-12-24T23:37:14.529Z,24.77
2022-12-24T23:39:34.559Z,26.45
2022-12-24T23:41:54.845Z,26.83
2022-12-24T23:44:15.024Z,26.55
2022-12-24T23:46:35.275Z,29.13
2022-12-24T23:48:55.833Z,28.70
2022-12-24T23:51:18.952Z,31.33
2022-12-24T23:53:39.214Z,31.88
2022-12-24T23:55:59.111Z,31.50
2022-12-24T23:58:19.078Z,31.48
